Time;durP1;ratioP1;P1;durP2;ratioP2;P2;SDS_P1;SDS_P2;PMS_P1;PMS_P2;Temp;Humidity;BMP_temperature;BMP_pressure;BME280_temperature;BME280_humidity;BME280_pressure;Samples;Min_cycle;Max_cycle;Signal;HPM_P1;HPM_P2
2022/01/22 00:00:42;;;;;;;13.93;8.70;;;;;;;4.28;94.50;101514.78;5077833;28;20031;-75
2022/01/22 00:03:07;;;;;;;12.63;7.40;;;;;;;4.33;94.81;101519.00;5082964;28;20486;-76
2022/01/22 00:05:33;;;;;;;14.45;7.68;;;;;;;4.39;94.47;101516.09;5093667;28;20028;-75
2022/01/22 00:07:58;;;;;;;12.73;8.20;;;;;;;4.35;94.30;101513.63;5075257;28;20031;-74
2022/01/22 00:10:24;;;;;;;15.60;8.45;;;;;;;4.31;94.61;101517.31;5082335;28;20068;-75
2022/01/22 00:15:18;;;;;;;11.25;7.45;;;;;;;4.29;94.21;101509.44;5093477;28;20047;-76
2022/01/22 00:17:45;;;;;;;12.50;8.52;;;;;;;4.31;94.37;101504.94;5074450;28;20095;-75
2022/01/22 00:20:11;;;;;;;12.68;7.90;;;;;;;4.32;94.52;101500.50;5074747;28;20500;-75
2022/01/22 00:22:37;;;;;;;14.77;7.88;;;;;;;4.30;94.00;101510.31;5076077;28;20033;-76
2022/01/22 00:25:08;;;;;;;14.68;8.45;;;;;;;4.27;94.03;101518.38;5091725;28;20030;-74
2022/01/22 00:27:33;;;;;;;14.65;8.32;;;;;;;4.26;93.97;101520.16;5076998;28;20024;-74
2022/01/22 00:29:59;;;;;;;15.57;7.93;;;;;;;4.29;94.08;101524.47;5078931;28;20131;-75
2022/01/22 00:32:24;;;;;;;14.02;8.10;;;;;;;4.30;93.67;101520.91;5097186;28;20047;-74
2022/01/22 00:34:49;;;;;;;15.73;8.38;;;;;;;4.29;94.45;101524.47;5096651;27;20047;-74
2022/01/22 00:37:15;;;;;;;16.58;8.50;;;;;;;4.28;93.79;101522.72;5077688;28;20087;-74
2022/01/22 00:39:40;;;;;;;16.02;8.57;;;;;;;4.23;93.89;101524.66;5086279;28;20040;-76
2022/01/22 00:42:11;;;;;;;13.13;8.18;;;;;;;4.25;93.87;101518.38;5079535;27;20092;-75
2022/01/22 00:44:37;;;;;;;12.50;8.48;;;;;;;4.24;93.98;101518.44;5103918;27;20040;-75
2022/01/22 00:47:03;;;;;;;12.75;8.00;;;;;;;4.26;93.95;101517.50;5080511;27;20066;-75
2022/01/22 00:49:29;;;;;;;13.35;7.93;;;;;;;4.25;93.56;101517.53;5079111;28;20035;-75
2022/01/22 00:51:55;;;;;;;17.63;8.75;;;;;;;4.24;93.89;101521.09;5085718;27;20036;-75
2022/01/22 00:54:20;;;;;;;13.07;7.82;;;;;;;4.28;94.05;101513.00;5085651;27;20032;-75
2022/01/22 00:56:46;;;;;;;17.75;8.32;;;;;;;4.26;93.92;101519.28;5086601;27;20057;-75
2022/01/22 00:59:11;;;;;;;14.38;7.93;;;;;;;4.25;94.31;101522.81;5082796;27;20026;-76
2022/01/22 01:01:36;;;;;;;13.77;7.75;;;;;;;4.27;93.70;101518.38;5078172;28;20027;-74
2022/01/22 01:04:03;;;;;;;15.18;8.35;;;;;;;4.23;94.37;101525.53;5079278;28;20539;-75
2022/01/22 01:06:29;;;;;;;13.15;8.00;;;;;;;4.26;94.27;101527.22;5078651;27;20023;-75
2022/01/22 01:08:54;;;;;;;15.27;8.88;;;;;;;4.23;94.24;101527.31;5079021;28;20036;-75
2022/01/22 01:11:21;;;;;;;12.50;8.10;;;;;;;4.27;94.51;101523.66;5079968;28;20070;-75
2022/01/22 01:13:50;;;;;;;11.02;8.38;;;;;;;4.28;94.01;101522.72;5096883;28;20031;-75
2022/01/22 01:16:20;;;;;;;12.45;8.07;;;;;;;4.27;94.56;101516.56;5079069;28;20032;-74
2022/01/22 01:32:39;;;;;;;14.82;8.30;;;;;;;4.25;94.53;101514.88;5098886;27;20042;-74
2022/01/22 01:35:07;;;;;;;14.65;8.77;;;;;;;4.21;94.88;101516.78;5087170;27;20468;-76
2022/01/22 01:37:32;;;;;;;13.77;8.18;;;;;;;4.20;94.70;101522.13;5084714;28;20028;-74
2022/01/22 01:40:02;;;;;;;15.10;8.60;;;;;;;4.20;94.57;101517.72;5083415;28;20039;-76
2022/01/22 01:42:43;;;;;;;15.70;8.93;;;;;;;4.21;95.00;101511.50;5096437;28;20015;-75
2022/01/22 01:45:08;;;;;;;15.75;8.48;;;;;;;4.25;94.77;101512.22;5080048;28;20024;-75
2022/01/22 01:47:36;;;;;;;12.65;8.82;;;;;;;4.27;95.05;101510.41;5086095;27;20043;-75
2022/01/22 01:50:02;;;;;;;15.55;8.40;;;;;;;4.29;94.93;101512.09;5079321;28;20057;-75
2022/01/22 01:52:37;;;;;;;15.27;9.32;;;;;;;4.29;95.11;101509.44;5087059;28;20024;-74
2022/01/22 01:55:17;;;;;;;15.73;8.70;;;;;;;4.28;94.83;101513.00;5080600;28;20028;-75
2022/01/22 01:57:43;;;;;;;14.68;8.93;;;;;;;4.28;95.00;101509.50;5079267;27;20039;-74
2022/01/22 02:00:35;;;;;;;17.40;8.77;;;;;;;4.25;94.96;101509.59;5094291;28;20032;-75
2022/01/22 02:03:00;;;;;;;13.32;8.98;;;;;;;4.23;94.95;101508.78;5091830;27;20066;-74
2022/01/22 02:05:26;;;;;;;13.50;9.13;;;;;;;4.27;95.11;101515.72;5093514;28;20032;-75
2022/01/22 02:07:54;;;;;;;13.52;8.88;;;;;;;4.28;94.95;101509.50;5078440;28;20051;-75
2022/01/22 02:10:24;;;;;;;12.50;8.77;;;;;;;4.25;94.98;101514.88;5078079;28;20049;-74
2022/01/22 02:26:04;;;;;;;15.35;9.18;;;;;;;4.25;95.27;101505.16;5094250;28;20028;-75
2022/01/22 02:28:30;;;;;;;15.75;9.38;;;;;;;4.27;95.01;101511.28;5095623;28;20433;-74
2022/01/22 02:31:04;;;;;;;12.43;8.73;;;;;;;4.26;94.98;101504.25;5080621;28;20055;-76
2022/01/22 02:33:40;;;;;;;16.20;9.05;;;;;;;4.25;94.89;101509.59;5092755;28;20035;-75
2022/01/22 02:36:16;;;;;;;18.15;8.98;;;;;;;4.28;94.98;101501.56;5082950;28;20042;-74
2022/01/22 02:41:23;;;;;;;14.23;9.50;;;;;;;4.31;94.82;101493.50;5092089;28;20032;-74
2022/01/22 02:43:49;;;;;;;12.43;8.90;;;;;;;4.31;95.06;101486.41;5074246;28;20039;-75
2022/01/22 02:46:20;;;;;;;12.63;9.07;;;;;;;4.33;94.73;101491.66;5089597;28;20045;-75
2022/01/22 02:48:46;;;;;;;15.10;9.38;;;;;;;4.33;94.74;101494.28;5073586;28;20028;-76
2022/01/22 02:51:11;;;;;;;16.77;9.07;;;;;;;4.32;95.08;101493.44;5088124;28;20538;-74
2022/01/22 02:53:36;;;;;;;15.98;9.38;;;;;;;4.31;95.02;101494.34;5090703;28;20040;-75
2022/01/22 02:56:02;;;;;;;18.35;8.85;;;;;;;4.30;94.93;101492.63;5073494;28;21050;-76
2022/01/22 02:58:28;;;;;;;13.60;8.95;;;;;;;4.31;94.80;101504.09;5073764;28;20039;-75
2022/01/22 03:00:53;;;;;;;14.73;9.05;;;;;;;4.32;94.76;101505.81;5074634;28;20557;-75
2022/01/22 03:03:18;;;;;;;17.33;10.05;;;;;;;4.29;94.77;101504.16;5073674;28;20047;-75
2022/01/22 03:05:44;;;;;;;15.75;9.40;;;;;;;4.30;94.90;101500.56;5075953;28;20042;-75
2022/01/22 03:08:10;;;;;;;14.35;9.18;;;;;;;4.28;94.64;101499.78;5088594;28;20184;-74
2022/01/22 03:10:37;;;;;;;13.20;8.80;;;;;;;4.27;94.73;101495.41;5074042;28;20028;-76
2022/01/22 03:21:28;;;;;;;13.85;8.93;;;;;;;4.28;94.88;101490.97;5084616;28;20099;-74
2022/01/22 03:29:32;;;;;;;12.57;9.13;;;;;;;4.22;94.73;101493.81;5090865;28;20059;-75
2022/01/22 03:31:58;;;;;;;15.13;9.95;;;;;;;4.21;94.82;101486.81;5096465;27;20047;-76
2022/01/22 03:34:23;;;;;;;14.52;9.23;;;;;;;4.22;94.55;101492.03;5093431;28;20039;-75
2022/01/22 03:36:48;;;;;;;17.80;9.93;;;;;;;4.22;94.66;101493.81;5077872;28;20043;-74
2022/01/22 03:39:14;;;;;;;13.73;9.25;;;;;;;4.20;94.77;101496.53;5083192;28;20021;-75
2022/01/22 03:41:39;;;;;;;14.35;9.85;;;;;;;4.20;94.78;101488.59;5081219;28;20051;-74
2022/01/22 03:44:06;;;;;;;13.95;8.77;;;;;;;4.22;94.87;101481.44;5078229;28;20050;-75
2022/01/22 03:46:32;;;;;;;15.23;8.85;;;;;;;4.22;94.57;101497.31;5076372;28;20027;-76
2022/01/22 03:48:58;;;;;;;14.38;9.02;;;;;;;4.24;94.03;101492.84;5082575;28;20036;-75
2022/01/22 03:51:23;;;;;;;12.80;8.95;;;;;;;4.27;94.98;101486.59;5076872;28;20110;-75
2022/01/22 03:53:48;;;;;;;14.50;9.20;;;;;;;4.25;94.54;101489.25;5076359;28;20036;-75
2022/01/22 03:56:14;;;;;;;12.85;8.95;;;;;;;4.30;94.76;101483.81;5093358;28;20039;-75
2022/01/22 03:58:42;;;;;;;14.77;8.65;;;;;;;4.25;94.69;101493.69;5082826;28;20047;-74
2022/01/22 04:01:54;;;;;;;14.45;9.70;;;;;;;4.22;94.60;101491.16;5075584;28;20039;-75
2022/01/22 04:04:20;;;;;;;12.10;8.90;;;;;;;4.26;94.87;101485.72;5100882;27;20043;-75
2022/01/22 04:09:17;;;;;;;14.60;10.05;;;;;;;4.22;94.71;101494.69;5096919;27;20047;-74
2022/01/22 04:11:44;;;;;;;17.17;9.93;;;;;;;4.22;94.27;101499.13;5086622;28;20112;-75
2022/01/22 04:14:18;;;;;;;16.30;9.73;;;;;;;4.20;94.33;101493.88;5098212;28;20043;-74
2022/01/22 04:17:00;;;;;;;13.73;9.43;;;;;;;4.20;94.65;101498.31;5081545;27;20032;-75
2022/01/22 04:24:55;;;;;;;13.82;9.98;;;;;;;4.21;94.56;101486.81;5116062;27;20047;-75
2022/01/22 04:27:27;;;;;;;12.57;9.65;;;;;;;4.21;94.75;101495.59;5078898;28;20049;-76
2022/01/22 04:29:54;;;;;;;14.73;10.10;;;;;;;4.20;94.95;101493.88;5096934;27;20048;-75
2022/01/22 04:32:20;;;;;;;13.90;9.98;;;;;;;4.21;94.61;101490.31;5078807;27;20124;-74
2022/01/22 04:34:46;;;;;;;14.32;9.38;;;;;;;4.22;94.72;101493.81;5081993;28;20039;-75
2022/01/22 04:37:11;;;;;;;14.23;10.38;;;;;;;4.21;94.83;101490.31;5088108;27;20038;-75
2022/01/22 04:39:37;;;;;;;15.88;9.90;;;;;;;4.21;94.96;101502.69;5087215;27;20023;-75
2022/01/22 04:42:03;;;;;;;16.77;10.95;;;;;;;4.23;95.07;101499.06;5086650;27;20031;-75
2022/01/22 04:44:34;;;;;;;16.98;10.63;;;;;;;4.23;94.81;101504.34;5081731;27;20024;-74
2022/01/22 04:47:17;;;;;;;14.13;11.00;;;;;;;4.23;94.69;101501.69;5087291;27;20031;-75
2022/01/22 04:54:59;;;;;;;15.50;10.95;;;;;;;4.21;95.18;101505.34;5097053;27;20035;-75
2022/01/22 04:57:29;;;;;;;16.60;11.15;;;;;;;4.21;94.70;101511.50;5085087;27;20153;-75
2022/01/22 04:59:55;;;;;;;16.02;11.05;;;;;;;4.22;94.63;101507.91;5096508;27;20035;-75
2022/01/22 05:02:20;;;;;;;16.80;11.88;;;;;;;4.22;94.86;101513.22;5085865;28;20028;-75
2022/01/22 05:04:46;;;;;;;14.98;11.07;;;;;;;4.24;94.96;101499.91;5086704;27;20032;-75
2022/01/22 05:07:11;;;;;;;17.63;11.32;;;;;;;4.22;95.14;101499.97;5085985;27;20046;-75
2022/01/22 05:09:36;;;;;;;16.35;11.65;;;;;;;4.22;95.02;101499.97;5078734;27;20023;-74
2022/01/22 05:12:04;;;;;;;15.02;11.68;;;;;;;4.22;94.71;101497.31;5079360;27;20052;-76
2022/01/22 05:14:29;;;;;;;17.50;12.20;;;;;;;4.22;95.12;101496.47;5087428;27;20043;-75
2022/01/22 05:16:56;;;;;;;17.10;11.52;;;;;;;4.22;95.68;101497.31;5087216;27;20035;-75
2022/01/22 05:19:46;;;;;;;19.40;12.13;;;;;;;4.20;95.12;101493.03;5093630;28;20118;-75
2022/01/22 05:22:21;;;;;;;16.30;11.88;;;;;;;4.18;94.73;101495.72;5098571;28;20024;-75
2022/01/22 05:24:51;;;;;;;20.70;12.27;;;;;;;4.19;95.16;101489.50;5097730;27;20060;-76
2022/01/22 05:33:17;;;;;;;19.02;12.77;;;;;;;4.20;95.59;101493.88;5092031;28;20051;-75
2022/01/22 05:38:30;;;;;;;19.35;13.10;;;;;;;4.24;95.98;101499.91;5091812;28;20042;-75
2022/01/22 05:40:56;;;;;;;22.67;13.65;;;;;;;4.22;95.85;101486.75;5090328;28;20062;-75
2022/01/22 05:43:21;;;;;;;20.35;14.02;;;;;;;4.21;95.47;101495.59;5091809;28;20032;-75
2022/01/22 05:45:47;;;;;;;22.95;15.30;;;;;;;4.21;95.41;101495.59;5080991;28;20069;-76
2022/01/22 05:48:12;;;;;;;22.02;15.15;;;;;;;4.24;95.54;101502.56;5092021;28;20028;-75
2022/01/22 05:53:19;;;;;;;26.00;14.88;;;;;;;4.23;95.86;101500.84;5090094;28;20040;-76
2022/01/22 06:01:11;;;;;;;21.77;15.27;;;;;;;4.22;95.99;101509.72;5090336;28;20044;-75
2022/01/22 06:03:36;;;;;;;23.50;14.88;;;;;;;4.25;95.80;101513.09;5074350;28;20036;-75
2022/01/22 06:06:02;;;;;;;22.08;15.15;;;;;;;4.26;95.63;101511.34;5090812;28;20050;-75
2022/01/22 06:08:31;;;;;;;24.50;15.90;;;;;;;4.27;96.00;101521.00;5075469;28;20054;-75
2022/01/22 06:10:59;;;;;;;;;;;;;;;4.29;95.90;101514.72;5091294;28;20033;-75
2022/01/22 06:13:33;;;;;;;24.23;15.45;;;;;;;4.28;95.89;101522.72;5080649;28;19921;-75
2022/01/22 06:15:58;;;;;;;23.70;16.73;;;;;;;4.28;96.13;101520.94;5076523;28;20108;-75
2022/01/22 06:18:24;;;;;;;21.48;15.82;;;;;;;4.31;96.49;101515.53;5075107;28;20096;-76
2022/01/22 06:20:49;;;;;;;23.73;15.95;;;;;;;4.29;95.86;101514.72;5088797;28;20031;-75
2022/01/22 06:23:14;;;;;;;23.08;15.63;;;;;;;4.30;96.22;101518.25;5079283;28;20031;-75
2022/01/22 06:25:40;;;;;;;26.70;17.38;;;;;;;4.30;96.34;101520.91;5080609;28;20031;-74
2022/01/22 06:28:05;;;;;;;23.23;17.17;;;;;;;4.30;95.95;101520.91;5088889;28;20028;-74
2022/01/22 06:30:32;;;;;;;25.27;16.83;;;;;;;4.30;95.71;101519.09;5074075;28;20554;-75
2022/01/22 06:32:57;;;;;;;25.73;17.13;;;;;;;4.30;96.11;101515.59;5079808;28;20055;-76
2022/01/22 06:35:23;;;;;;;26.70;17.20;;;;;;;4.29;96.16;101520.03;5081783;28;20494;-75
2022/01/22 06:37:50;;;;;;;23.05;17.23;;;;;;;4.31;96.29;101517.31;5077152;28;20046;-75
2022/01/22 06:42:40;;;;;;;24.25;16.92;;;;;;;4.29;96.29;101514.72;5088723;28;20153;-74
2022/01/22 06:45:06;;;;;;;26.67;17.75;;;;;;;4.33;96.40;101518.13;5073279;28;20036;-74
2022/01/22 06:47:32;;;;;;;26.42;17.83;;;;;;;4.32;96.23;101519.03;5087596;28;20109;-75
2022/01/22 06:49:58;;;;;;;28.05;18.70;;;;;;;4.32;96.24;101517.25;5076549;28;20016;-75
2022/01/22 06:52:24;;;;;;;25.80;17.98;;;;;;;4.31;96.40;101523.47;5072856;28;20592;-75
2022/01/22 06:54:49;;;;;;;27.52;18.38;;;;;;;4.32;96.42;101521.69;5089386;28;20550;-76
2022/01/22 06:57:15;;;;;;;26.58;18.50;;;;;;;4.34;96.39;101525.16;5080339;28;20062;-75
2022/01/22 06:59:40;;;;;;;24.15;17.77;;;;;;;4.35;96.33;101533.03;5071396;28;20901;-75
2022/01/22 07:02:06;;;;;;;26.45;17.80;;;;;;;4.35;96.17;101534.81;5073119;28;20020;-75
2022/01/22 07:04:36;;;;;;;28.83;18.40;;;;;;;4.37;96.77;101540.91;5090397;28;20036;-75
2022/01/22 07:07:05;;;;;;;24.65;17.25;;;;;;;4.37;96.56;101539.13;5079769;28;20032;-75
2022/01/22 07:09:31;;;;;;;28.52;18.23;;;;;;;4.39;96.24;101547.88;5079076;28;20032;-75
2022/01/22 07:11:57;;;;;;;27.95;18.92;;;;;;;4.40;96.51;101538.16;5073789;28;20069;-76
2022/01/22 07:14:22;;;;;;;28.92;18.58;;;;;;;4.43;96.67;101545.97;5074505;28;20039;-75
2022/01/22 07:16:47;;;;;;;28.48;18.85;;;;;;;4.40;96.12;101554.03;5090394;28;20044;-75
2022/01/22 07:19:18;;;;;;;25.70;18.60;;;;;;;4.36;96.32;101555.94;5073950;28;20032;-75
2022/01/22 07:21:43;;;;;;;28.33;19.20;;;;;;;4.39;96.51;101560.25;5073230;28;20033;-74
2022/01/22 07:24:26;;;;;;;29.02;18.75;;;;;;;4.39;96.19;101561.13;5079832;28;20036;-75
2022/01/22 07:26:52;;;;;;;30.42;19.48;;;;;;;4.38;96.87;101562.03;5089304;28;20444;-76
2022/01/22 07:29:20;;;;;;;29.13;19.50;;;;;;;4.37;96.69;101564.75;5080839;28;20032;-76
2022/01/22 07:31:45;;;;;;;30.75;19.67;;;;;;;4.41;96.50;101563.69;5084719;28;20032;-74
2022/01/22 07:34:10;;;;;;;31.02;20.42;;;;;;;4.39;96.61;101565.56;5084229;28;20027;-75
2022/01/22 07:36:36;;;;;;;29.10;19.25;;;;;;;4.41;96.90;101571.66;5077178;28;20039;-75
2022/01/22 07:39:04;;;;;;;30.98;20.52;;;;;;;4.38;96.43;101575.28;5076925;28;20063;-74
2022/01/22 07:41:30;;;;;;;30.27;20.95;;;;;;;4.36;96.82;101577.13;5082232;28;20062;-76
2022/01/22 07:43:55;;;;;;;31.20;20.70;;;;;;;4.37;96.52;101575.34;5081733;28;20760;-76
2022/01/22 07:46:21;;;;;;;30.73;19.85;;;;;;;4.35;96.60;101577.19;5084194;28;20063;-75
2022/01/22 07:48:46;;;;;;;28.63;19.33;;;;;;;4.38;96.88;101580.56;5078660;28;20027;-75
2022/01/22 07:51:13;;;;;;;30.00;19.88;;;;;;;4.38;97.18;101577.94;5074655;28;20485;-75
2022/01/22 07:53:39;;;;;;;30.20;19.60;;;;;;;4.37;96.97;101580.63;5083081;28;20102;-74
2022/01/22 07:56:04;;;;;;;30.55;20.60;;;;;;;4.35;97.15;101595.72;5082956;28;20128;-74
2022/01/22 07:58:29;;;;;;;29.42;20.38;;;;;;;4.34;97.00;101592.22;5081638;28;20045;-75
2022/01/22 08:00:55;;;;;;;32.75;20.90;;;;;;;4.34;97.40;101607.22;5082457;28;20150;-75
2022/01/22 08:03:21;;;;;;;32.00;20.88;;;;;;;4.31;97.43;101599.41;5094304;28;20468;-75
2022/01/22 08:05:46;;;;;;;30.85;19.85;;;;;;;4.31;97.37;101600.28;5075111;28;20039;-75
2022/01/22 08:08:11;;;;;;;31.35;20.13;;;;;;;4.32;97.04;101601.13;5080943;28;20036;-75
2022/01/22 08:10:37;;;;;;;27.88;18.98;;;;;;;4.32;97.66;101595.84;5081162;28;20098;-75
2022/01/22 08:13:02;;;;;;;31.73;20.10;;;;;;;4.34;97.18;101594.00;5076121;28;20031;-75
2022/01/22 08:15:27;;;;;;;29.80;19.88;;;;;;;4.33;97.53;101603.72;5084579;28;20051;-74
2022/01/22 08:17:53;;;;;;;30.10;19.25;;;;;;;4.34;97.55;101605.44;5082574;28;20045;-75
2022/01/22 08:20:20;;;;;;;32.28;18.90;;;;;;;4.34;97.88;101596.63;5076159;28;20039;-75
2022/01/22 08:22:46;;;;;;;32.28;20.00;;;;;;;4.34;97.66;101592.22;5074957;28;20036;-77
2022/01/22 08:25:12;;;;;;;30.08;19.38;;;;;;;4.37;97.78;101592.09;5077431;28;20054;-76
2022/01/22 08:28:52;;;;;;;29.98;19.83;;;;;;;4.38;97.38;101598.25;5076752;28;20118;-73
2022/01/22 08:30:28;;;;;;;25.92;17.52;;;;;;;4.37;97.37;101586.78;5097040;28;20553;-77
2022/01/22 08:35:54;;;;;;;30.08;19.17;;;;;;;4.41;97.46;101603.44;5057020;28;20063;-75
2022/01/22 08:38:25;;;;;;;26.85;18.35;;;;;;;4.42;97.87;101605.16;5083081;28;20032;-76
2022/01/22 08:40:51;;;;;;;27.55;18.27;;;;;;;4.43;97.42;101602.44;5080825;28;20035;-76
2022/01/22 08:43:17;;;;;;;27.92;19.20;;;;;;;4.45;97.90;101612.13;5074602;28;20580;-74
2022/01/22 08:45:43;;;;;;;26.75;18.90;;;;;;;4.48;97.58;101610.22;5073691;28;20032;-75
2022/01/22 08:48:09;;;;;;;26.92;17.90;;;;;;;4.51;97.76;101609.22;5093045;28;20047;-75
2022/01/22 08:50:34;;;;;;;28.25;19.20;;;;;;;4.50;97.10;101608.38;5083144;27;20027;-76
2022/01/22 08:53:00;;;;;;;30.30;19.90;;;;;;;4.53;97.81;101607.41;5094127;28;20027;-76
2022/01/22 08:55:26;;;;;;;29.83;19.33;;;;;;;4.53;97.63;101613.56;5097185;28;20092;-75
2022/01/22 08:57:51;;;;;;;27.33;19.02;;;;;;;4.55;97.36;101610.84;5080540;27;20043;-76
2022/01/22 09:00:19;;;;;;;27.95;18.80;;;;;;;4.56;97.82;101613.44;5086037;28;20031;-75
2022/01/22 09:02:46;;;;;;;30.15;20.13;;;;;;;4.56;97.50;101612.56;5086025;27;20046;-75
2022/01/22 09:05:15;;;;;;;29.42;20.77;;;;;;;4.58;97.68;101610.72;5098828;27;20106;-75
2022/01/22 09:07:40;;;;;;;;;;;;;;;4.59;97.35;101621.25;5079458;27;20046;-74
2022/01/22 09:10:06;;;;;;;26.83;17.83;;;;;;;4.60;97.71;101617.69;5084239;28;19912;-75
2022/01/22 09:12:31;;;;;;;32.70;19.10;;;;;;;4.60;97.37;101623.00;5077107;27;20080;-76
2022/01/22 09:14:59;;;;;;;31.10;19.67;;;;;;;4.61;97.37;101618.56;5086015;27;20042;-75
2022/01/22 09:17:24;;;;;;;30.85;19.80;;;;;;;4.60;97.62;101620.34;5079642;27;20057;-75
2022/01/22 09:19:56;;;;;;;26.38;18.92;;;;;;;4.64;97.29;101618.44;5095637;27;20032;-75
2022/01/22 09:22:22;;;;;;;29.95;18.50;;;;;;;4.64;97.55;101621.94;5096382;27;20441;-75
2022/01/22 09:24:47;;;;;;;26.80;18.60;;;;;;;4.61;97.50;101622.06;5079135;28;20038;-76
2022/01/22 09:27:15;;;;;;;31.23;19.55;;;;;;;4.62;97.41;101626.44;5081600;27;20043;-76
2022/01/22 09:29:40;;;;;;;29.50;20.05;;;;;;;4.62;97.75;101633.53;5077926;27;20080;-76
2022/01/22 09:32:06;;;;;;;27.20;18.05;;;;;;;4.62;97.38;101633.53;5093778;27;20035;-75
2022/01/22 09:34:31;;;;;;;26.65;19.40;;;;;;;4.61;97.42;101627.38;5083568;27;20031;-75
2022/01/22 09:37:00;;;;;;;30.50;18.25;;;;;;;4.65;97.73;101628.09;5082682;27;20078;-75
2022/01/22 09:39:25;;;;;;;27.60;18.77;;;;;;;4.61;98.13;101627.38;5080484;28;20077;-75
2022/01/22 09:41:50;;;;;;;28.35;19.10;;;;;;;4.63;97.66;101632.59;5078836;28;20039;-75
2022/01/22 09:44:16;;;;;;;31.08;19.08;;;;;;;4.64;97.40;101629.91;5076899;28;20047;-75
2022/01/22 09:46:43;;;;;;;31.42;19.02;;;;;;;4.71;98.10;101635.81;5084328;28;20031;-75
2022/01/22 09:49:12;;;;;;;29.05;20.23;;;;;;;4.72;98.00;101630.47;5077498;28;20061;-76
2022/01/22 09:51:38;;;;;;;29.63;19.25;;;;;;;4.74;97.67;101630.44;5083327;28;20028;-75
2022/01/22 09:54:05;;;;;;;28.10;19.25;;;;;;;4.73;97.73;101636.66;5094374;28;20032;-75
2022/01/22 09:56:32;;;;;;;28.48;19.15;;;;;;;4.76;97.59;101627.72;5082131;27;20175;-76
2022/01/22 09:58:59;;;;;;;30.17;19.30;;;;;;;4.77;97.82;101626.81;5080695;27;20434;-75
2022/01/22 10:01:27;;;;;;;28.25;18.23;;;;;;;4.80;97.44;101626.69;5077990;28;20024;-75
2022/01/22 10:03:55;;;;;;;28.02;19.10;;;;;;;4.78;97.61;101636.47;5091823;28;20512;-75
2022/01/22 10:06:24;;;;;;;31.60;18.75;;;;;;;4.77;97.62;101632.97;5077502;27;20450;-75
2022/01/22 10:08:54;;;;;;;27.25;17.70;;;;;;;4.76;97.55;101630.38;5080623;27;20032;-76
2022/01/22 10:11:26;;;;;;;28.60;19.55;;;;;;;4.77;97.94;101640.03;5083297;28;20036;-75
2022/01/22 10:13:53;;;;;;;29.08;18.92;;;;;;;4.77;98.11;101642.69;5077702;28;20036;-75
2022/01/22 10:16:19;;;;;;;26.17;17.88;;;;;;;4.79;97.86;101643.50;5076643;28;20039;-76
2022/01/22 10:18:45;;;;;;;27.83;18.73;;;;;;;4.80;97.87;101640.78;5094862;28;20139;-75
2022/01/22 10:21:14;;;;;;;28.38;18.55;;;;;;;4.81;97.87;101641.66;5093385;27;20046;-75
2022/01/22 10:23:39;;;;;;;31.33;19.50;;;;;;;4.80;98.52;101634.63;5093810;28;20103;-75
2022/01/22 10:26:10;;;;;;;29.23;19.02;;;;;;;4.79;98.43;101636.41;5092218;28;20063;-75
2022/01/22 10:28:48;;;;;;;29.20;19.13;;;;;;;4.80;98.60;101635.50;5076619;28;20063;-76
2022/01/22 10:31:23;;;;;;;29.52;19.40;;;;;;;4.79;98.51;101633.75;5074947;27;20044;-75
2022/01/22 10:34:29;;;;;;;25.80;18.25;;;;;;;4.82;98.52;101630.13;5080041;28;20861;-75
2022/01/22 10:36:58;;;;;;;29.00;18.38;;;;;;;4.84;98.32;101631.78;5022429;28;20119;-75
2022/01/22 10:39:26;;;;;;;30.02;19.25;;;;;;;4.89;98.54;101631.63;5069899;28;20048;-75
2022/01/22 10:41:52;;;;;;;29.73;19.52;;;;;;;4.88;98.95;101636.06;5074945;27;20031;-74
2022/01/22 10:44:22;;;;;;;29.67;19.23;;;;;;;4.87;98.44;101641.41;5091458;27;20028;-75
2022/01/22 10:47:03;;;;;;;28.02;19.27;;;;;;;4.87;98.58;101638.75;5090771;28;20109;-75
2022/01/22 10:49:29;;;;;;;29.05;18.65;;;;;;;4.87;98.66;101634.31;5094350;28;20068;-75
2022/01/22 10:51:59;;;;;;;29.08;19.15;;;;;;;4.90;98.25;101633.34;5076691;27;20027;-77
2022/01/22 10:54:28;;;;;;;27.80;18.58;;;;;;;4.91;98.21;101637.72;5075642;28;20031;-75
2022/01/22 10:56:54;;;;;;;28.30;18.98;;;;;;;4.91;98.44;101627.97;5090893;28;20046;-75
2022/01/22 10:59:21;;;;;;;26.23;18.55;;;;;;;4.94;98.53;101627.84;5076105;28;20052;-76
2022/01/22 11:02:02;;;;;;;31.38;20.80;;;;;;;4.95;98.66;101618.13;5081647;27;20032;-75
2022/01/22 11:04:30;;;;;;;28.30;18.85;;;;;;;4.94;98.87;101624.34;5082983;27;20162;-76
2022/01/22 11:06:59;;;;;;;28.77;19.20;;;;;;;4.95;98.14;101624.28;5080618;27;20150;-76
2022/01/22 11:09:26;;;;;;;29.38;19.23;;;;;;;4.95;98.50;101623.41;5076358;27;20281;-75
2022/01/22 11:11:52;;;;;;;27.17;19.10;;;;;;;4.95;98.55;101623.41;5075044;28;20062;-75
2022/01/22 11:14:19;;;;;;;30.13;19.48;;;;;;;4.97;98.89;101627.72;5073622;28;20042;-75
2022/01/22 11:16:46;;;;;;;29.58;19.00;;;;;;;4.97;98.94;101630.38;5076511;27;20543;-75
2022/01/22 11:19:15;;;;;;;27.65;18.85;;;;;;;5.01;98.96;101623.16;5074582;27;20501;-74
2022/01/22 11:21:44;;;;;;;;;;;;;;;5.01;99.06;101624.03;5077483;27;20032;-75
2022/01/22 11:24:11;;;;;;;28.58;17.80;;;;;;;5.01;98.79;101612.56;5075653;28;19916;-75
2022/01/22 11:26:43;;;;;;;28.80;18.20;;;;;;;5.01;98.69;101610.78;5076003;28;20027;-75
2022/01/22 11:29:10;;;;;;;29.15;18.80;;;;;;;5.00;98.99;101613.50;5076072;28;20039;-74
2022/01/22 11:31:37;;;;;;;33.47;19.17;;;;;;;5.00;99.38;101610.84;5072420;27;20059;-76
2022/01/22 11:34:05;;;;;;;30.83;20.20;;;;;;;5.02;99.72;101623.09;5065196;28;20052;-75
2022/01/22 11:37:09;;;;;;;29.27;19.05;;;;;;;5.01;99.19;101616.09;5072317;28;20586;-75
2022/01/22 11:39:35;;;;;;;31.80;20.10;;;;;;;5.03;99.28;101614.22;5108574;28;20088;-76
2022/01/22 11:42:00;;;;;;;29.33;18.90;;;;;;;5.02;99.19;101615.16;5081882;28;20035;-75
2022/01/22 11:44:32;;;;;;;29.02;18.77;;;;;;;5.04;99.45;101628.34;5082392;28;20038;-75
2022/01/22 11:47:22;;;;;;;30.83;19.30;;;;;;;5.05;99.88;101624.78;5081501;28;20459;-75
2022/01/22 11:50:04;;;;;;;30.10;19.30;;;;;;;5.04;99.38;101618.59;5075786;28;20030;-75
2022/01/22 11:52:33;;;;;;;27.33;18.33;;;;;;;5.04;99.22;101615.09;5112119;28;20058;-74
2022/01/22 11:54:59;;;;;;;;;;;;;;;5.06;99.41;101619.41;5083719;28;20051;-76
2022/01/22 11:57:30;;;;;;;27.73;17.35;;;;;;;5.03;99.46;101614.22;5083022;28;20261;-75
2022/01/22 12:00:22;;;;;;;26.73;18.90;;;;;;;5.03;99.59;101614.22;5076169;28;20036;-75
2022/01/22 12:03:02;;;;;;;32.33;19.67;;;;;;;5.04;100.00;101621.25;5077186;28;20122;-75
2022/01/22 12:05:30;;;;;;;32.33;19.20;;;;;;;5.06;99.60;101613.25;5098885;28;20036;-76
2022/01/22 12:08:00;;;;;;;31.95;20.27;;;;;;;5.04;100.00;101613.31;5075493;28;20050;-75
2022/01/22 12:10:40;;;;;;;29.55;20.65;;;;;;;5.07;99.70;101612.31;5111087;28;20055;-75
2022/01/22 12:16:16;;;;;;;34.20;20.45;;;;;;;5.09;99.50;101613.13;5098801;28;20034;-75
2022/01/22 12:18:57;;;;;;;29.00;18.45;;;;;;;5.10;100.00;101613.97;5074711;28;20027;-75
2022/01/22 12:21:40;;;;;;;32.40;20.23;;;;;;;5.13;99.75;101598.81;5075812;28;20035;-75
2022/01/22 12:24:08;;;;;;;31.05;20.45;;;;;;;5.15;99.73;101609.34;5091017;28;20122;-75
2022/01/22 12:26:45;;;;;;;30.52;20.48;;;;;;;5.15;100.00;101601.41;5078308;27;20741;-76
2022/01/22 12:29:34;;;;;;;30.83;20.50;;;;;;;5.16;99.73;101601.34;5095599;28;20060;-75
2022/01/22 12:32:06;;;;;;;;;;;;;;;5.19;99.82;101600.34;5078837;28;20039;-75
2022/01/22 12:34:57;;;;;;;33.08;20.23;;;;;;;5.16;99.75;101600.47;5097804;27;21019;-75
2022/01/22 12:37:23;;;;;;;30.60;20.38;;;;;;;5.15;99.78;101596.09;5085000;28;20028;-75
2022/01/22 12:39:52;;;;;;;32.55;20.25;;;;;;;5.16;100.00;101587.22;5083523;27;20035;-76
2022/01/22 12:42:33;;;;;;;31.02;20.77;;;;;;;5.21;99.97;101585.25;5086200;27;20053;-77
2022/01/22 12:45:06;;;;;;;34.13;22.40;;;;;;;5.22;100.00;101587.00;5080930;27;20031;-77
2022/01/22 12:47:32;;;;;;;32.05;20.45;;;;;;;5.24;99.69;101583.34;5085758;28;20477;-76
2022/01/22 12:50:05;;;;;;;32.05;21.15;;;;;;;5.24;99.90;101582.50;5076712;27;20046;-76
2022/01/22 12:52:33;;;;;;;32.63;22.73;;;;;;;5.24;99.63;101587.78;5085521;28;20031;-76